JBU764 KCMH-KDCA
Flight info
| Callsign | JBU764 |
|---|---|
| Flight time | 1h 3m |
| Altitude | 33000 |
| Route | OWEBO AIR BUCKO FRDMM6 |
| Aircraft | A320/M-SDE3FGHIRWY/LB1 |
Departure
| Time | 2026-05-08 23:49 |
|---|---|
| Airport | John Glenn Columbus International Airport (KCMH) |
Arrival
| Time | 2026-05-09 00:52 |
|---|---|
| Airport | Ronald Reagan Washington National Airport (KDCA) |
| Time | Latitude | Longitude | Altitude | Speed | Heading |
|---|---|---|---|---|---|
| 2026-05-08 23:19 | 39.99955 | -82.88353 | 821 ft | 0 kts | 218° |
| 2026-05-08 23:40 | 39.99973 | -82.88336 | 822 ft | 4 kts | 204° |
| 2026-05-08 23:41 | 39.99996 | -82.88330 | 823 ft | 4 kts | 156° |
| 2026-05-08 23:41 | 40.00007 | -82.88340 | 823 ft | 0 kts | 108° |
| 2026-05-08 23:44 | 40.00006 | -82.88339 | 823 ft | 0 kts | 108° |
| 2026-05-08 23:44 | 40.00007 | -82.88328 | 823 ft | 2 kts | 79° |
| 2026-05-08 23:44 | 40.00023 | -82.88312 | 825 ft | 4 kts | 33° |
| 2026-05-08 23:45 | 40.00055 | -82.88299 | 825 ft | 6 kts | 10° |
| 2026-05-08 23:45 | 40.00081 | -82.88262 | 825 ft | 7 kts | 76° |
| 2026-05-08 23:45 | 40.00079 | -82.88189 | 825 ft | 9 kts | 94° |
| 2026-05-08 23:45 | 40.00074 | -82.88096 | 825 ft | 12 kts | 94° |
| 2026-05-08 23:46 | 40.00073 | -82.88066 | 823 ft | 2 kts | 94° |
| 2026-05-08 23:46 | 40.00071 | -82.88036 | 825 ft | 5 kts | 94° |
| 2026-05-08 23:46 | 40.00071 | -82.87980 | 825 ft | 7 kts | 81° |
| 2026-05-08 23:46 | 40.00073 | -82.87971 | 825 ft | 0 kts | 73° |
| 2026-05-08 23:47 | 40.00073 | -82.87969 | 824 ft | 1 kts | 73° |
| 2026-05-08 23:47 | 40.00084 | -82.87951 | 823 ft | 4 kts | 45° |
| 2026-05-08 23:47 | 40.00120 | -82.87941 | 824 ft | 7 kts | 356° |
| 2026-05-08 23:47 | 40.00161 | -82.87986 | 824 ft | 9 kts | 290° |
| 2026-05-08 23:48 | 40.00170 | -82.88077 | 824 ft | 11 kts | 274° |
| 2026-05-08 23:48 | 40.00180 | -82.88270 | 826 ft | 54 kts | 274° |
| 2026-05-08 23:48 | 40.00229 | -82.89168 | 823 ft | 140 kts | 274° |
| 2026-05-08 23:48 | 40.00317 | -82.90678 | 1157 ft | 174 kts | 275° |
| 2026-05-08 23:49 | 40.00420 | -82.92252 | 2165 ft | 175 kts | 274° |
| 2026-05-08 23:49 | 40.00623 | -82.93742 | 3149 ft | 154 kts | 292° |
| 2026-05-08 23:49 | 40.01121 | -82.94804 | 4042 ft | 128 kts | 312° |
| 2026-05-08 23:49 | 40.01914 | -82.95612 | 4291 ft | 162 kts | 330° |
| 2026-05-08 23:50 | 40.02972 | -82.96112 | 4803 ft | 165 kts | 351° |
| 2026-05-08 23:50 | 40.04116 | -82.96072 | 5615 ft | 168 kts | 13° |
| 2026-05-08 23:50 | 40.05287 | -82.95389 | 5968 ft | 210 kts | 38° |
| 2026-05-08 23:50 | 40.06267 | -82.93677 | 6022 ft | 267 kts | 71° |
| 2026-05-08 23:51 | 40.06560 | -82.91105 | 6019 ft | 293 kts | 87° |
| 2026-05-08 23:51 | 40.06621 | -82.88519 | 6012 ft | 279 kts | 89° |
| 2026-05-08 23:51 | 40.06629 | -82.86000 | 6015 ft | 277 kts | 90° |
| 2026-05-08 23:51 | 40.06628 | -82.83486 | 6016 ft | 277 kts | 90° |
| 2026-05-08 23:52 | 40.06631 | -82.80976 | 6016 ft | 277 kts | 90° |
| 2026-05-08 23:52 | 40.06647 | -82.78461 | 6016 ft | 277 kts | 89° |
| 2026-05-08 23:52 | 40.06672 | -82.75945 | 6021 ft | 278 kts | 89° |
| 2026-05-08 23:52 | 40.06703 | -82.73406 | 6727 ft | 280 kts | 89° |
| 2026-05-08 23:53 | 40.06740 | -82.70858 | 7699 ft | 282 kts | 89° |
| 2026-05-08 23:53 | 40.06776 | -82.68279 | 8591 ft | 286 kts | 89° |
| 2026-05-08 23:53 | 40.06812 | -82.65668 | 9448 ft | 290 kts | 89° |
| 2026-05-08 23:53 | 40.06847 | -82.63023 | 10279 ft | 293 kts | 89° |
| 2026-05-08 23:54 | 40.06881 | -82.60338 | 11092 ft | 297 kts | 89° |
| 2026-05-08 23:54 | 40.06913 | -82.57628 | 11880 ft | 301 kts | 89° |
| 2026-05-08 23:54 | 40.06948 | -82.54883 | 12643 ft | 305 kts | 89° |
| 2026-05-08 23:55 | 40.07021 | -82.49322 | 13510 ft | 310 kts | 89° |
| 2026-05-08 23:55 | 40.07056 | -82.46495 | 14278 ft | 312 kts | 89° |
| 2026-05-08 23:55 | 40.07092 | -82.43652 | 14981 ft | 315 kts | 89° |
| 2026-05-08 23:55 | 40.07126 | -82.40772 | 15685 ft | 318 kts | 89° |
| 2026-05-08 23:56 | 40.07159 | -82.37867 | 16365 ft | 322 kts | 89° |
| 2026-05-08 23:56 | 40.07194 | -82.34929 | 17013 ft | 325 kts | 89° |
| 2026-05-08 23:56 | 40.07228 | -82.31962 | 17654 ft | 328 kts | 89° |
| 2026-05-08 23:56 | 40.07260 | -82.28967 | 18281 ft | 332 kts | 89° |
| 2026-05-08 23:57 | 40.07292 | -82.25939 | 18910 ft | 335 kts | 89° |
| 2026-05-08 23:57 | 40.07322 | -82.22881 | 19530 ft | 338 kts | 89° |
| 2026-05-08 23:57 | 40.07351 | -82.19800 | 20139 ft | 341 kts | 89° |
| 2026-05-08 23:57 | 40.07381 | -82.16686 | 20730 ft | 344 kts | 89° |
| 2026-05-08 23:58 | 40.07411 | -82.13548 | 21295 ft | 347 kts | 89° |
| 2026-05-08 23:58 | 40.07440 | -82.10385 | 21826 ft | 350 kts | 89° |
| 2026-05-08 23:58 | 40.07470 | -82.07188 | 22346 ft | 353 kts | 89° |
| 2026-05-08 23:58 | 40.07500 | -82.03971 | 22833 ft | 357 kts | 89° |
| 2026-05-08 23:59 | 40.07530 | -82.00727 | 22977 ft | 358 kts | 89° |
| 2026-05-08 23:59 | 40.07558 | -81.97482 | 23008 ft | 357 kts | 89° |
| 2026-05-08 23:59 | 40.07584 | -81.94243 | 23008 ft | 357 kts | 89° |
| 2026-05-08 23:59 | 40.07607 | -81.90995 | 23010 ft | 357 kts | 89° |
| 2026-05-09 00:00 | 40.07627 | -81.87749 | 23009 ft | 357 kts | 89° |
| 2026-05-09 00:00 | 40.07648 | -81.84506 | 23010 ft | 357 kts | 89° |
| 2026-05-09 00:00 | 40.07669 | -81.81264 | 23010 ft | 357 kts | 89° |
| 2026-05-09 00:00 | 40.07690 | -81.78018 | 23008 ft | 357 kts | 89° |
| 2026-05-09 00:01 | 40.07710 | -81.74818 | 23010 ft | 357 kts | 89° |
| 2026-05-09 00:01 | 40.07726 | -81.71566 | 23010 ft | 357 kts | 91° |
| 2026-05-09 00:01 | 40.07563 | -81.68328 | 23010 ft | 358 kts | 95° |
| 2026-05-09 00:01 | 40.07350 | -81.65092 | 23015 ft | 358 kts | 95° |
| 2026-05-09 00:02 | 40.07138 | -81.61851 | 23018 ft | 358 kts | 95° |
| 2026-05-09 00:02 | 40.06928 | -81.58610 | 23021 ft | 359 kts | 95° |
| 2026-05-09 00:02 | 40.06720 | -81.55367 | 23031 ft | 359 kts | 95° |
| 2026-05-09 00:02 | 40.06512 | -81.52124 | 23028 ft | 359 kts | 95° |
| 2026-05-09 00:03 | 40.06301 | -81.48869 | 23155 ft | 361 kts | 95° |
| 2026-05-09 00:03 | 40.06086 | -81.45598 | 23741 ft | 362 kts | 95° |
| 2026-05-09 00:03 | 40.05869 | -81.42310 | 24270 ft | 364 kts | 95° |
| 2026-05-09 00:03 | 40.05652 | -81.39004 | 24770 ft | 367 kts | 95° |
| 2026-05-09 00:04 | 40.05432 | -81.35668 | 24964 ft | 369 kts | 96° |
| 2026-05-09 00:04 | 40.04866 | -81.32423 | 25024 ft | 369 kts | 115° |
| 2026-05-09 00:04 | 40.03464 | -81.29621 | 25462 ft | 371 kts | 130° |
| 2026-05-09 00:04 | 40.01777 | -81.27054 | 25949 ft | 373 kts | 131° |
| 2026-05-09 00:05 | 40.00059 | -81.24499 | 26417 ft | 376 kts | 131° |
| 2026-05-09 00:05 | 39.98345 | -81.21953 | 26861 ft | 379 kts | 131° |
| 2026-05-09 00:05 | 39.96598 | -81.19360 | 27305 ft | 382 kts | 131° |
| 2026-05-09 00:05 | 39.94839 | -81.16742 | 27746 ft | 385 kts | 130° |
| 2026-05-09 00:06 | 39.93314 | -81.13870 | 28174 ft | 388 kts | 122° |
| 2026-05-09 00:06 | 39.91879 | -81.10875 | 28611 ft | 390 kts | 122° |
| 2026-05-09 00:06 | 39.90441 | -81.07867 | 29035 ft | 393 kts | 122° |
| 2026-05-09 00:06 | 39.88987 | -81.04826 | 29458 ft | 396 kts | 122° |
| 2026-05-09 00:07 | 39.87526 | -81.01772 | 29875 ft | 398 kts | 122° |
| 2026-05-09 00:07 | 39.86058 | -80.98703 | 30279 ft | 401 kts | 122° |
| 2026-05-09 00:07 | 39.84582 | -80.95619 | 30667 ft | 403 kts | 122° |
| 2026-05-09 00:07 | 39.83093 | -80.92509 | 30939 ft | 406 kts | 122° |
| 2026-05-09 00:08 | 39.81599 | -80.89391 | 31006 ft | 406 kts | 122° |
| 2026-05-09 00:08 | 39.78601 | -80.83148 | 31009 ft | 406 kts | 122° |
| 2026-05-09 00:09 | 39.75607 | -80.76936 | 31009 ft | 406 kts | 122° |
| 2026-05-09 00:09 | 39.72624 | -80.70768 | 31009 ft | 406 kts | 122° |
| 2026-05-09 00:10 | 39.69616 | -80.64557 | 31009 ft | 406 kts | 122° |
| 2026-05-09 00:10 | 39.66608 | -80.58343 | 31015 ft | 407 kts | 122° |
| 2026-05-09 00:11 | 39.63589 | -80.52128 | 31020 ft | 407 kts | 122° |
| 2026-05-09 00:11 | 39.60565 | -80.45910 | 31023 ft | 407 kts | 122° |
| 2026-05-09 00:12 | 39.57545 | -80.39702 | 31024 ft | 407 kts | 122° |
| 2026-05-09 00:12 | 39.54521 | -80.33505 | 31026 ft | 407 kts | 122° |
| 2026-05-09 00:13 | 39.51490 | -80.27313 | 31025 ft | 407 kts | 122° |
| 2026-05-09 00:13 | 39.48454 | -80.21127 | 31024 ft | 406 kts | 122° |
| 2026-05-09 00:14 | 39.45422 | -80.14954 | 31025 ft | 406 kts | 122° |
| 2026-05-09 00:14 | 39.42389 | -80.08789 | 31023 ft | 406 kts | 122° |
| 2026-05-09 00:15 | 39.39863 | -80.03667 | 31021 ft | 406 kts | 123° |
| 2026-05-09 00:15 | 39.36817 | -79.97507 | 31021 ft | 406 kts | 123° |
| 2026-05-09 00:16 | 39.33775 | -79.91349 | 31018 ft | 406 kts | 123° |
| 2026-05-09 00:16 | 39.30722 | -79.85210 | 31014 ft | 406 kts | 123° |
| 2026-05-09 00:16 | 39.29429 | -79.81975 | 31015 ft | 405 kts | 107° |
| 2026-05-09 00:17 | 39.28757 | -79.78438 | 31012 ft | 406 kts | 100° |
| 2026-05-09 00:17 | 39.28168 | -79.71239 | 31005 ft | 406 kts | 93° |
| 2026-05-09 00:18 | 39.27856 | -79.63936 | 31008 ft | 407 kts | 94° |
| 2026-05-09 00:18 | 39.27390 | -79.56647 | 31000 ft | 407 kts | 96° |
| 2026-05-09 00:18 | 39.27100 | -79.53019 | 30635 ft | 405 kts | 96° |
| 2026-05-09 00:19 | 39.26794 | -79.49420 | 30227 ft | 402 kts | 96° |
| 2026-05-09 00:19 | 39.26484 | -79.45841 | 29838 ft | 400 kts | 96° |
| 2026-05-09 00:19 | 39.26178 | -79.42285 | 29452 ft | 398 kts | 96° |
| 2026-05-09 00:19 | 39.25877 | -79.38743 | 29086 ft | 395 kts | 96° |
| 2026-05-09 00:20 | 39.25585 | -79.35228 | 28726 ft | 393 kts | 96° |
| 2026-05-09 00:20 | 39.25298 | -79.31731 | 28367 ft | 391 kts | 96° |
| 2026-05-09 00:20 | 39.25014 | -79.28251 | 28000 ft | 389 kts | 96° |
| 2026-05-09 00:20 | 39.24735 | -79.24834 | 27647 ft | 386 kts | 96° |
| 2026-05-09 00:21 | 39.24450 | -79.21400 | 27278 ft | 384 kts | 96° |
| 2026-05-09 00:21 | 39.24162 | -79.17983 | 26906 ft | 382 kts | 96° |
| 2026-05-09 00:21 | 39.23873 | -79.14591 | 26538 ft | 379 kts | 96° |
| 2026-05-09 00:21 | 39.23583 | -79.11220 | 26162 ft | 377 kts | 96° |
| 2026-05-09 00:22 | 39.23296 | -79.07878 | 25796 ft | 374 kts | 96° |
| 2026-05-09 00:22 | 39.23009 | -79.04562 | 25427 ft | 371 kts | 96° |
| 2026-05-09 00:22 | 39.22722 | -79.01263 | 25042 ft | 368 kts | 96° |
| 2026-05-09 00:22 | 39.22436 | -78.97986 | 24617 ft | 366 kts | 96° |
| 2026-05-09 00:23 | 39.22152 | -78.94729 | 24220 ft | 364 kts | 96° |
| 2026-05-09 00:23 | 39.21853 | -78.91503 | 23834 ft | 361 kts | 97° |
| 2026-05-09 00:23 | 39.21541 | -78.88298 | 23427 ft | 359 kts | 97° |
| 2026-05-09 00:23 | 39.21231 | -78.85153 | 23048 ft | 357 kts | 97° |
| 2026-05-09 00:24 | 39.20920 | -78.81994 | 22655 ft | 354 kts | 97° |
| 2026-05-09 00:24 | 39.20610 | -78.78851 | 22244 ft | 353 kts | 97° |
| 2026-05-09 00:24 | 39.20302 | -78.75714 | 21832 ft | 351 kts | 97° |
| 2026-05-09 00:24 | 39.19999 | -78.72596 | 21446 ft | 349 kts | 97° |
| 2026-05-09 00:25 | 39.19699 | -78.69500 | 21060 ft | 347 kts | 97° |
| 2026-05-09 00:25 | 39.19400 | -78.66427 | 20672 ft | 345 kts | 97° |
| 2026-05-09 00:25 | 39.19101 | -78.63367 | 20285 ft | 343 kts | 96° |
| 2026-05-09 00:25 | 39.18803 | -78.60334 | 19976 ft | 339 kts | 97° |
| 2026-05-09 00:26 | 39.18505 | -78.57322 | 19565 ft | 338 kts | 97° |
| 2026-05-09 00:26 | 39.18206 | -78.54326 | 19176 ft | 337 kts | 97° |
| 2026-05-09 00:26 | 39.17908 | -78.51341 | 18800 ft | 334 kts | 97° |
| 2026-05-09 00:26 | 39.17611 | -78.48381 | 18435 ft | 332 kts | 97° |
| 2026-05-09 00:27 | 39.17315 | -78.45429 | 18060 ft | 330 kts | 97° |
| 2026-05-09 00:27 | 39.17021 | -78.42505 | 17682 ft | 328 kts | 97° |
| 2026-05-09 00:27 | 39.16728 | -78.39593 | 17299 ft | 327 kts | 97° |
| 2026-05-09 00:27 | 39.16405 | -78.36707 | 16933 ft | 325 kts | 102° |
| 2026-05-09 00:28 | 39.15835 | -78.33900 | 16578 ft | 323 kts | 106° |
| 2026-05-09 00:28 | 39.15175 | -78.31150 | 16216 ft | 321 kts | 108° |
| 2026-05-09 00:28 | 39.14477 | -78.28426 | 15856 ft | 319 kts | 109° |
| 2026-05-09 00:28 | 39.13773 | -78.25727 | 15500 ft | 317 kts | 109° |
| 2026-05-09 00:29 | 39.13077 | -78.23043 | 15134 ft | 315 kts | 108° |
| 2026-05-09 00:29 | 39.12394 | -78.20366 | 14792 ft | 314 kts | 108° |
| 2026-05-09 00:29 | 39.11721 | -78.17700 | 14439 ft | 312 kts | 108° |
| 2026-05-09 00:29 | 39.11065 | -78.15086 | 14081 ft | 310 kts | 108° |
| 2026-05-09 00:30 | 39.10406 | -78.12444 | 13743 ft | 309 kts | 108° |
| 2026-05-09 00:30 | 39.09752 | -78.09820 | 13390 ft | 307 kts | 108° |
| 2026-05-09 00:30 | 39.09085 | -78.07180 | 13029 ft | 305 kts | 108° |
| 2026-05-09 00:30 | 39.08432 | -78.04620 | 12692 ft | 304 kts | 108° |
| 2026-05-09 00:31 | 39.07774 | -78.02044 | 12344 ft | 302 kts | 108° |
| 2026-05-09 00:31 | 39.07116 | -77.99477 | 11998 ft | 300 kts | 108° |
| 2026-05-09 00:31 | 39.06462 | -77.96925 | 11653 ft | 299 kts | 108° |
| 2026-05-09 00:31 | 39.05811 | -77.94394 | 11305 ft | 298 kts | 108° |
| 2026-05-09 00:32 | 39.05162 | -77.91876 | 11069 ft | 294 kts | 108° |
| 2026-05-09 00:32 | 39.04513 | -77.89353 | 11057 ft | 297 kts | 108° |
| 2026-05-09 00:32 | 39.03863 | -77.86825 | 11057 ft | 298 kts | 108° |
| 2026-05-09 00:32 | 39.03215 | -77.84300 | 11058 ft | 297 kts | 108° |
| 2026-05-09 00:33 | 39.02566 | -77.81777 | 11054 ft | 297 kts | 108° |
| 2026-05-09 00:33 | 39.01916 | -77.79254 | 11055 ft | 297 kts | 108° |
| 2026-05-09 00:33 | 39.01267 | -77.76731 | 11053 ft | 297 kts | 108° |
| 2026-05-09 00:33 | 39.00614 | -77.74209 | 11059 ft | 297 kts | 108° |
| 2026-05-09 00:34 | 38.99961 | -77.71692 | 11039 ft | 296 kts | 108° |
| 2026-05-09 00:34 | 38.99311 | -77.69182 | 10712 ft | 295 kts | 108° |
| 2026-05-09 00:34 | 38.98668 | -77.66689 | 10364 ft | 293 kts | 108° |
| 2026-05-09 00:34 | 38.98024 | -77.64242 | 10023 ft | 292 kts | 109° |
| 2026-05-09 00:35 | 38.97326 | -77.61800 | 9683 ft | 290 kts | 111° |
| 2026-05-09 00:35 | 38.96606 | -77.59383 | 9342 ft | 289 kts | 111° |
| 2026-05-09 00:35 | 38.95882 | -77.56983 | 9009 ft | 287 kts | 111° |
| 2026-05-09 00:35 | 38.95163 | -77.54595 | 8670 ft | 286 kts | 111° |
| 2026-05-09 00:36 | 38.94658 | -77.52141 | 8339 ft | 284 kts | 92° |
| 2026-05-09 00:36 | 38.94979 | -77.49674 | 8007 ft | 281 kts | 68° |
| 2026-05-09 00:36 | 38.95859 | -77.47446 | 7754 ft | 274 kts | 63° |
| 2026-05-09 00:36 | 38.96620 | -77.45294 | 7623 ft | 255 kts | 67° |
| 2026-05-09 00:37 | 38.97280 | -77.43228 | 7267 ft | 247 kts | 68° |
| 2026-05-09 00:37 | 38.97913 | -77.41191 | 6789 ft | 245 kts | 68° |
| 2026-05-09 00:37 | 38.98550 | -77.39162 | 6309 ft | 243 kts | 68° |
| 2026-05-09 00:37 | 38.99191 | -77.37161 | 5824 ft | 241 kts | 67° |
| 2026-05-09 00:38 | 38.99836 | -77.35178 | 5307 ft | 240 kts | 67° |
| 2026-05-09 00:38 | 39.00485 | -77.33205 | 4821 ft | 238 kts | 66° |
| 2026-05-09 00:38 | 39.01133 | -77.31254 | 4335 ft | 236 kts | 66° |
| 2026-05-09 00:38 | 39.01782 | -77.29321 | 3845 ft | 235 kts | 66° |
| 2026-05-09 00:39 | 39.02429 | -77.27397 | 3366 ft | 233 kts | 66° |
| 2026-05-09 00:39 | 39.02895 | -77.25423 | 2880 ft | 231 kts | 87° |
| 2026-05-09 00:39 | 39.02635 | -77.23418 | 2749 ft | 227 kts | 114° |
| 2026-05-09 00:39 | 39.01769 | -77.21830 | 2750 ft | 213 kts | 137° |
| 2026-05-09 00:40 | 39.00704 | -77.20535 | 2753 ft | 209 kts | 137° |
| 2026-05-09 00:40 | 38.99680 | -77.19290 | 2757 ft | 196 kts | 137° |
| 2026-05-09 00:40 | 38.98703 | -77.18106 | 2782 ft | 187 kts | 137° |
| 2026-05-09 00:41 | 38.97046 | -77.16037 | 2761 ft | 170 kts | 136° |
| 2026-05-09 00:41 | 38.96201 | -77.14983 | 2750 ft | 167 kts | 138° |
| 2026-05-09 00:41 | 38.95352 | -77.14013 | 2387 ft | 161 kts | 140° |
| 2026-05-09 00:41 | 38.94501 | -77.13072 | 1948 ft | 160 kts | 140° |
| 2026-05-09 00:42 | 38.93646 | -77.12139 | 1995 ft | 161 kts | 142° |
| 2026-05-09 00:42 | 38.92721 | -77.11375 | 1699 ft | 152 kts | 149° |
| 2026-05-09 00:42 | 38.91898 | -77.10744 | 1767 ft | 141 kts | 150° |
| 2026-05-09 00:42 | 38.90957 | -77.10029 | 2108 ft | 167 kts | 149° |
| 2026-05-09 00:43 | 38.89880 | -77.09508 | 2771 ft | 163 kts | 174° |
| 2026-05-09 00:43 | 38.88717 | -77.09802 | 3020 ft | 181 kts | 204° |
| 2026-05-09 00:43 | 38.87538 | -77.10541 | 3043 ft | 195 kts | 208° |
| 2026-05-09 00:43 | 38.86329 | -77.11379 | 3052 ft | 198 kts | 209° |
| 2026-05-09 00:44 | 38.85130 | -77.12214 | 3054 ft | 198 kts | 209° |
| 2026-05-09 00:44 | 38.83917 | -77.13059 | 3054 ft | 198 kts | 209° |
| 2026-05-09 00:44 | 38.82687 | -77.13917 | 3055 ft | 198 kts | 209° |
| 2026-05-09 00:44 | 38.81476 | -77.14761 | 3055 ft | 198 kts | 209° |
| 2026-05-09 00:45 | 38.80262 | -77.15608 | 3054 ft | 198 kts | 209° |
| 2026-05-09 00:45 | 38.79189 | -77.16646 | 3046 ft | 197 kts | 235° |
| 2026-05-09 00:45 | 38.78786 | -77.18286 | 3055 ft | 196 kts | 273° |
| 2026-05-09 00:45 | 38.79266 | -77.19889 | 3059 ft | 196 kts | 309° |
| 2026-05-09 00:46 | 38.80241 | -77.21130 | 3059 ft | 198 kts | 318° |
| 2026-05-09 00:46 | 38.81286 | -77.22280 | 3057 ft | 198 kts | 319° |
| 2026-05-09 00:46 | 38.82335 | -77.23412 | 3057 ft | 198 kts | 319° |
| 2026-05-09 00:46 | 38.83494 | -77.24352 | 3049 ft | 198 kts | 341° |
| 2026-05-09 00:47 | 38.84858 | -77.24441 | 3053 ft | 200 kts | 13° |
| 2026-05-09 00:47 | 38.86109 | -77.23654 | 3062 ft | 201 kts | 31° |
| 2026-05-09 00:47 | 38.87296 | -77.22703 | 3058 ft | 201 kts | 31° |
| 2026-05-09 00:47 | 38.88469 | -77.21761 | 3056 ft | 201 kts | 31° |
| 2026-05-09 00:48 | 38.89632 | -77.20830 | 3051 ft | 189 kts | 31° |
| 2026-05-09 00:48 | 38.90704 | -77.19969 | 3057 ft | 176 kts | 31° |
| 2026-05-09 00:48 | 38.91723 | -77.19152 | 3080 ft | 171 kts | 31° |
| 2026-05-09 00:48 | 38.92730 | -77.18343 | 3060 ft | 170 kts | 31° |
| 2026-05-09 00:49 | 38.93687 | -77.17453 | 3052 ft | 170 kts | 45° |
| 2026-05-09 00:49 | 38.94321 | -77.16176 | 3056 ft | 170 kts | 69° |
| 2026-05-09 00:49 | 38.94518 | -77.14725 | 2715 ft | 164 kts | 90° |
| 2026-05-09 00:49 | 38.94272 | -77.13303 | 2154 ft | 164 kts | 115° |
| 2026-05-09 00:50 | 38.93614 | -77.12119 | 1791 ft | 162 kts | 138° |
| 2026-05-09 00:50 | 38.92646 | -77.11405 | 1988 ft | 164 kts | 156° |
| 2026-05-09 00:50 | 38.91633 | -77.10756 | 1931 ft | 160 kts | 150° |
| 2026-05-09 00:50 | 38.90840 | -77.09790 | 1386 ft | 161 kts | 124° |
| 2026-05-09 00:51 | 38.90438 | -77.08457 | 986 ft | 160 kts | 103° |
| 2026-05-09 00:51 | 38.89968 | -77.07153 | 952 ft | 163 kts | 129° |
| 2026-05-09 00:51 | 38.89189 | -77.06080 | 922 ft | 165 kts | 134° |
| 2026-05-09 00:51 | 38.88391 | -77.05050 | 682 ft | 164 kts | 135° |
| 2026-05-09 00:52 | 38.87532 | -77.04102 | 425 ft | 163 kts | 151° |
| 2026-05-09 00:52 | 38.86434 | -77.03903 | 153 ft | 160 kts | 180° |
| 2026-05-09 00:52 | 38.85391 | -77.03795 | 24 ft | 129 kts | 176° |
| 2026-05-09 00:52 | 38.84988 | -77.03759 | 23 ft | 29 kts | 174° |
| 2026-05-09 00:53 | 38.84878 | -77.03814 | 21 ft | 11 kts | 250° |
| 2026-05-09 00:53 | 38.84876 | -77.03861 | 21 ft | 1 kts | 268° |
| 2026-05-09 00:53 | 38.84875 | -77.03880 | 21 ft | 4 kts | 269° |
| 2026-05-09 00:53 | 38.84871 | -77.03927 | 21 ft | 6 kts | 252° |
| 2026-05-09 00:54 | 38.84837 | -77.03943 | 22 ft | 6 kts | 184° |
| 2026-05-09 00:54 | 38.84791 | -77.03946 | 23 ft | 8 kts | 185° |
| 2026-05-09 00:54 | 38.84736 | -77.03973 | 24 ft | 10 kts | 210° |
| 2026-05-09 00:54 | 38.84667 | -77.04017 | 24 ft | 12 kts | 205° |
| 2026-05-09 00:55 | 38.84621 | -77.04098 | 26 ft | 12 kts | 291° |
| 2026-05-09 00:55 | 38.84648 | -77.04183 | 27 ft | 4 kts | 258° |
| 2026-05-09 00:55 | 38.84655 | -77.04209 | 25 ft | 1 kts | 329° |